Terminal Aerodrome Forecast
Issued by NWS Billings, MT

Home | Current Version | Previous Version | Graphics & Text | Print | Product List | Glossary On
Versions: 1 2 3 4 5 6 7 8 9 10 11 12 13
000
FTUS45 KBYZ 252320
TAFMLS
TAF
KMLS 252320Z 2600/2624 29009KT P6SM FEW050 SCT200
     FM261000 VRB05KT P6SM VCFG FEW002 SCT200
     FM261600 30010KT P6SM SKC=

USA.gov is the U.S. government's official web portal to all federal, state and local government web resources and services.